sensor_id;sensor_type;location;lat;lon;timestamp;temperature;humidity
770;DHT22;368;48.698;9.116;2023-07-29T00:00:04;15.80;99.90
770;DHT22;368;48.698;9.116;2023-07-29T00:02:32;16.00;99.90
770;DHT22;368;48.698;9.116;2023-07-29T00:04:59;15.90;99.90
770;DHT22;368;48.698;9.116;2023-07-29T00:07:25;15.90;99.90
770;DHT22;368;48.698;9.116;2023-07-29T00:09:52;16.10;99.90
770;DHT22;368;48.698;9.116;2023-07-29T00:12:20;16.10;99.90
770;DHT22;368;48.698;9.116;2023-07-29T00:14:47;16.10;99.90
770;DHT22;368;48.698;9.116;2023-07-29T00:17:14;16.20;99.90
770;DHT22;368;48.698;9.116;2023-07-29T00:19:41;16.10;99.90
770;DHT22;368;48.698;9.116;2023-07-29T00:22:07;16.00;99.90
770;DHT22;368;48.698;9.116;2023-07-29T00:24:34;15.90;99.90
770;DHT22;368;48.698;9.116;2023-07-29T00:27:01;16.10;99.90
770;DHT22;368;48.698;9.116;2023-07-29T00:29:29;16.00;99.90
770;DHT22;368;48.698;9.116;2023-07-29T00:31:56;16.00;99.90
770;DHT22;368;48.698;9.116;2023-07-29T00:34:23;15.90;99.90
770;DHT22;368;48.698;9.116;2023-07-29T00:36:50;16.00;99.90
770;DHT22;368;48.698;9.116;2023-07-29T00:39:16;16.20;99.90
770;DHT22;368;48.698;9.116;2023-07-29T00:41:44;16.00;99.90
770;DHT22;368;48.698;9.116;2023-07-29T00:44:11;15.90;99.90
770;DHT22;368;48.698;9.116;2023-07-29T00:46:40;16.10;99.90
770;DHT22;368;48.698;9.116;2023-07-29T00:49:07;16.10;99.90
770;DHT22;368;48.698;9.116;2023-07-29T00:51:34;16.20;99.90
770;DHT22;368;48.698;9.116;2023-07-29T00:54:02;16.20;99.90
770;DHT22;368;48.698;9.116;2023-07-29T00:56:29;16.20;99.90
770;DHT22;368;48.698;9.116;2023-07-29T00:58:55;16.20;99.90
770;DHT22;368;48.698;9.116;2023-07-29T01:01:27;16.00;99.90
770;DHT22;368;48.698;9.116;2023-07-29T01:03:55;15.90;99.90
770;DHT22;368;48.698;9.116;2023-07-29T01:06:27;15.80;99.90
770;DHT22;368;48.698;9.116;2023-07-29T01:09:02;16.20;99.90
770;DHT22;368;48.698;9.116;2023-07-29T01:11:38;16.10;99.90
770;DHT22;368;48.698;9.116;2023-07-29T01:14:14;16.10;99.90
770;DHT22;368;48.698;9.116;2023-07-29T01:16:48;16.20;99.90
770;DHT22;368;48.698;9.116;2023-07-29T01:19:30;16.20;99.90
770;DHT22;368;48.698;9.116;2023-07-29T01:22:00;16.00;99.90
770;DHT22;368;48.698;9.116;2023-07-29T01:24:29;16.00;99.90
770;DHT22;368;48.698;9.116;2023-07-29T01:26:55;15.90;99.90
770;DHT22;368;48.698;9.116;2023-07-29T01:29:22;15.90;99.90
770;DHT22;368;48.698;9.116;2023-07-29T01:31:54;15.90;99.90
770;DHT22;368;48.698;9.116;2023-07-29T01:34:28;15.90;99.90
770;DHT22;368;48.698;9.116;2023-07-29T01:36:57;16.00;99.90
770;DHT22;368;48.698;9.116;2023-07-29T01:39:26;16.00;99.90
770;DHT22;368;48.698;9.116;2023-07-29T01:41:57;15.90;99.90
770;DHT22;368;48.698;9.116;2023-07-29T01:44:24;15.90;99.90
770;DHT22;368;48.698;9.116;2023-07-29T01:46:51;15.70;99.90
770;DHT22;368;48.698;9.116;2023-07-29T01:49:18;15.90;99.90
770;DHT22;368;48.698;9.116;2023-07-29T01:51:44;15.80;99.90
770;DHT22;368;48.698;9.116;2023-07-29T01:54:11;15.60;99.90
770;DHT22;368;48.698;9.116;2023-07-29T01:56:38;15.80;99.90
770;DHT22;368;48.698;9.116;2023-07-29T01:59:06;15.70;99.90
770;DHT22;368;48.698;9.116;2023-07-29T02:01:33;15.60;99.90
770;DHT22;368;48.698;9.116;2023-07-29T02:04:00;15.60;99.90
770;DHT22;368;48.698;9.116;2023-07-29T02:06:27;15.60;99.90
770;DHT22;368;48.698;9.116;2023-07-29T02:08:54;15.90;99.90
770;DHT22;368;48.698;9.116;2023-07-29T02:11:21;15.90;99.90
770;DHT22;368;48.698;9.116;2023-07-29T02:13:52;15.70;99.90
770;DHT22;368;48.698;9.116;2023-07-29T02:16:20;15.80;99.90
770;DHT22;368;48.698;9.116;2023-07-29T02:18:48;15.80;99.90
770;DHT22;368;48.698;9.116;2023-07-29T02:21:15;15.90;99.90
770;DHT22;368;48.698;9.116;2023-07-29T02:23:42;15.80;99.90
770;DHT22;368;48.698;9.116;2023-07-29T02:26:08;15.90;99.90
770;DHT22;368;48.698;9.116;2023-07-29T02:28:36;15.80;99.90
770;DHT22;368;48.698;9.116;2023-07-29T02:31:09;15.70;99.90
770;DHT22;368;48.698;9.116;2023-07-29T02:33:38;15.50;99.90
770;DHT22;368;48.698;9.116;2023-07-29T02:36:05;15.70;99.90
770;DHT22;368;48.698;9.116;2023-07-29T02:38:32;15.80;99.90
770;DHT22;368;48.698;9.116;2023-07-29T02:40:58;15.80;99.90
770;DHT22;368;48.698;9.116;2023-07-29T02:43:25;15.70;99.90
770;DHT22;368;48.698;9.116;2023-07-29T02:45:52;15.80;99.90
770;DHT22;368;48.698;9.116;2023-07-29T02:48:19;15.80;99.90
770;DHT22;368;48.698;9.116;2023-07-29T02:50:47;15.70;99.90
770;DHT22;368;48.698;9.116;2023-07-29T02:53:14;16.00;99.90
770;DHT22;368;48.698;9.116;2023-07-29T02:55:41;15.90;99.90
770;DHT22;368;48.698;9.116;2023-07-29T02:58:08;15.80;99.90
770;DHT22;368;48.698;9.116;2023-07-29T03:00:35;15.70;99.90
770;DHT22;368;48.698;9.116;2023-07-29T03:03:02;15.90;99.90
770;DHT22;368;48.698;9.116;2023-07-29T03:05:29;15.80;99.90
770;DHT22;368;48.698;9.116;2023-07-29T03:07:57;15.90;99.90
770;DHT22;368;48.698;9.116;2023-07-29T03:10:24;15.90;99.90
770;DHT22;368;48.698;9.116;2023-07-29T03:12:53;15.80;99.90
770;DHT22;368;48.698;9.116;2023-07-29T03:15:23;15.70;99.90
770;DHT22;368;48.698;9.116;2023-07-29T03:17:50;15.80;99.90
770;DHT22;368;48.698;9.116;2023-07-29T03:20:17;15.80;99.90
770;DHT22;368;48.698;9.116;2023-07-29T03:22:44;15.80;99.90
770;DHT22;368;48.698;9.116;2023-07-29T03:25:13;15.80;99.90
770;DHT22;368;48.698;9.116;2023-07-29T03:27:39;16.00;99.90
770;DHT22;368;48.698;9.116;2023-07-29T03:30:07;16.00;99.90
770;DHT22;368;48.698;9.116;2023-07-29T03:32:33;16.00;99.90
770;DHT22;368;48.698;9.116;2023-07-29T03:35:00;16.20;99.90
770;DHT22;368;48.698;9.116;2023-07-29T03:37:27;16.30;99.90
770;DHT22;368;48.698;9.116;2023-07-29T03:39:54;16.10;99.90
770;DHT22;368;48.698;9.116;2023-07-29T03:42:22;16.10;99.90
770;DHT22;368;48.698;9.116;2023-07-29T03:44:49;16.10;99.90
770;DHT22;368;48.698;9.116;2023-07-29T03:47:15;16.00;99.90
770;DHT22;368;48.698;9.116;2023-07-29T03:49:42;16.20;99.90
770;DHT22;368;48.698;9.116;2023-07-29T03:52:09;16.20;99.90
770;DHT22;368;48.698;9.116;2023-07-29T03:54:36;16.30;99.90
770;DHT22;368;48.698;9.116;2023-07-29T03:57:03;16.40;99.90
770;DHT22;368;48.698;9.116;2023-07-29T03:59:31;16.30;99.90
770;DHT22;368;48.698;9.116;2023-07-29T04:01:58;16.10;99.90
770;DHT22;368;48.698;9.116;2023-07-29T04:04:25;16.30;99.90
770;DHT22;368;48.698;9.116;2023-07-29T04:06:52;16.30;99.90
770;DHT22;368;48.698;9.116;2023-07-29T04:09:19;16.30;99.90
770;DHT22;368;48.698;9.116;2023-07-29T04:11:46;16.40;99.90
770;DHT22;368;48.698;9.116;2023-07-29T04:14:12;16.40;99.90
770;DHT22;368;48.698;9.116;2023-07-29T04:16:40;16.20;99.90
770;DHT22;368;48.698;9.116;2023-07-29T04:19:07;16.40;99.90
770;DHT22;368;48.698;9.116;2023-07-29T04:21:34;16.50;99.90
770;DHT22;368;48.698;9.116;2023-07-29T04:24:01;16.40;99.90
770;DHT22;368;48.698;9.116;2023-07-29T04:26:28;16.40;99.90
770;DHT22;368;48.698;9.116;2023-07-29T04:28:54;16.50;99.90
770;DHT22;368;48.698;9.116;2023-07-29T04:31:21;16.20;99.90
770;DHT22;368;48.698;9.116;2023-07-29T04:33:49;16.60;99.90
770;DHT22;368;48.698;9.116;2023-07-29T04:36:16;16.40;99.90
770;DHT22;368;48.698;9.116;2023-07-29T04:38:43;16.50;99.90
770;DHT22;368;48.698;9.116;2023-07-29T04:41:10;16.80;99.90
770;DHT22;368;48.698;9.116;2023-07-29T04:43:36;16.80;99.90
770;DHT22;368;48.698;9.116;2023-07-29T04:46:06;16.70;99.90
770;DHT22;368;48.698;9.116;2023-07-29T04:48:33;16.50;99.90
770;DHT22;368;48.698;9.116;2023-07-29T04:51:01;16.60;99.90
770;DHT22;368;48.698;9.116;2023-07-29T04:53:28;16.80;99.90
770;DHT22;368;48.698;9.116;2023-07-29T04:55:55;16.70;99.90
770;DHT22;368;48.698;9.116;2023-07-29T04:58:22;16.70;99.90
770;DHT22;368;48.698;9.116;2023-07-29T05:00:49;16.80;99.90
770;DHT22;368;48.698;9.116;2023-07-29T05:03:16;16.80;99.90
770;DHT22;368;48.698;9.116;2023-07-29T05:05:42;16.30;99.90
770;DHT22;368;48.698;9.116;2023-07-29T05:08:11;16.80;99.90
770;DHT22;368;48.698;9.116;2023-07-29T05:10:38;16.80;99.90
770;DHT22;368;48.698;9.116;2023-07-29T05:13:05;16.90;99.90
770;DHT22;368;48.698;9.116;2023-07-29T05:15:31;16.90;99.90
770;DHT22;368;48.698;9.116;2023-07-29T05:17:58;17.00;99.90
770;DHT22;368;48.698;9.116;2023-07-29T05:20:25;17.00;99.90
770;DHT22;368;48.698;9.116;2023-07-29T05:22:52;17.10;99.90
770;DHT22;368;48.698;9.116;2023-07-29T05:25:20;17.10;99.90
770;DHT22;368;48.698;9.116;2023-07-29T05:27:46;17.10;99.90
770;DHT22;368;48.698;9.116;2023-07-29T05:30:13;17.20;99.90
770;DHT22;368;48.698;9.116;2023-07-29T05:32:40;17.20;99.90
770;DHT22;368;48.698;9.116;2023-07-29T05:35:07;17.30;99.90
770;DHT22;368;48.698;9.116;2023-07-29T05:37:37;17.40;99.90
770;DHT22;368;48.698;9.116;2023-07-29T05:40:05;17.40;99.90
770;DHT22;368;48.698;9.116;2023-07-29T05:42:34;17.50;99.90
770;DHT22;368;48.698;9.116;2023-07-29T05:45:01;17.70;99.90
770;DHT22;368;48.698;9.116;2023-07-29T05:47:28;17.80;99.90
770;DHT22;368;48.698;9.116;2023-07-29T05:49:55;17.90;99.90
770;DHT22;368;48.698;9.116;2023-07-29T05:52:22;17.90;99.90
770;DHT22;368;48.698;9.116;2023-07-29T05:54:48;17.90;99.90
770;DHT22;368;48.698;9.116;2023-07-29T05:57:15;17.90;99.90
770;DHT22;368;48.698;9.116;2023-07-29T05:59:44;18.00;99.90
770;DHT22;368;48.698;9.116;2023-07-29T06:02:10;18.00;99.90
770;DHT22;368;48.698;9.116;2023-07-29T06:04:37;18.10;99.90
770;DHT22;368;48.698;9.116;2023-07-29T06:07:05;18.20;99.90
770;DHT22;368;48.698;9.116;2023-07-29T06:09:31;18.30;99.90
770;DHT22;368;48.698;9.116;2023-07-29T06:11:58;18.50;99.90
770;DHT22;368;48.698;9.116;2023-07-29T06:14:25;18.60;99.90
770;DHT22;368;48.698;9.116;2023-07-29T06:16:53;18.80;99.90
770;DHT22;368;48.698;9.116;2023-07-29T06:19:20;19.00;99.90
770;DHT22;368;48.698;9.116;2023-07-29T06:21:47;19.10;99.90
770;DHT22;368;48.698;9.116;2023-07-29T06:24:14;19.20;99.90
770;DHT22;368;48.698;9.116;2023-07-29T06:26:41;19.40;99.90
770;DHT22;368;48.698;9.116;2023-07-29T06:29:08;19.40;99.90
770;DHT22;368;48.698;9.116;2023-07-29T06:31:34;19.40;99.90
770;DHT22;368;48.698;9.116;2023-07-29T06:34:03;19.30;99.90
770;DHT22;368;48.698;9.116;2023-07-29T06:36:29;19.10;99.90
770;DHT22;368;48.698;9.116;2023-07-29T06:38:56;19.00;99.90
770;DHT22;368;48.698;9.116;2023-07-29T06:41:23;18.90;99.90
770;DHT22;368;48.698;9.116;2023-07-29T06:43:50;18.90;99.90
770;DHT22;368;48.698;9.116;2023-07-29T06:46:17;18.80;99.90
770;DHT22;368;48.698;9.116;2023-07-29T06:48:43;18.70;99.90
770;DHT22;368;48.698;9.116;2023-07-29T06:51:11;18.50;99.90
770;DHT22;368;48.698;9.116;2023-07-29T06:53:38;18.40;99.90
770;DHT22;368;48.698;9.116;2023-07-29T06:56:05;18.20;99.90
770;DHT22;368;48.698;9.116;2023-07-29T06:58:32;18.20;99.90
770;DHT22;368;48.698;9.116;2023-07-29T07:00:59;18.10;99.90
770;DHT22;368;48.698;9.116;2023-07-29T07:03:26;18.00;99.90
770;DHT22;368;48.698;9.116;2023-07-29T07:05:53;17.90;99.90
770;DHT22;368;48.698;9.116;2023-07-29T07:08:21;17.90;99.90
770;DHT22;368;48.698;9.116;2023-07-29T07:10:48;17.70;99.90
770;DHT22;368;48.698;9.116;2023-07-29T07:13:14;17.70;99.90
770;DHT22;368;48.698;9.116;2023-07-29T07:15:41;17.60;99.90
770;DHT22;368;48.698;9.116;2023-07-29T07:18:08;17.60;99.90
770;DHT22;368;48.698;9.116;2023-07-29T07:20:35;17.60;99.90
770;DHT22;368;48.698;9.116;2023-07-29T07:23:02;17.60;99.90
770;DHT22;368;48.698;9.116;2023-07-29T07:25:32;17.70;99.90
770;DHT22;368;48.698;9.116;2023-07-29T07:27:59;17.60;99.90
770;DHT22;368;48.698;9.116;2023-07-29T07:30:25;17.70;99.90
770;DHT22;368;48.698;9.116;2023-07-29T07:32:52;17.70;99.90
770;DHT22;368;48.698;9.116;2023-07-29T07:35:19;17.80;99.90
770;DHT22;368;48.698;9.116;2023-07-29T07:37:46;17.90;99.90
770;DHT22;368;48.698;9.116;2023-07-29T07:40:13;17.90;99.90
770;DHT22;368;48.698;9.116;2023-07-29T07:42:41;18.00;99.90
770;DHT22;368;48.698;9.116;2023-07-29T07:45:08;18.10;99.90
770;DHT22;368;48.698;9.116;2023-07-29T07:47:34;18.20;99.90
770;DHT22;368;48.698;9.116;2023-07-29T07:50:01;18.20;99.90
770;DHT22;368;48.698;9.116;2023-07-29T07:52:28;18.20;99.90
770;DHT22;368;48.698;9.116;2023-07-29T07:54:55;18.30;99.90
770;DHT22;368;48.698;9.116;2023-07-29T07:57:22;18.30;99.90
770;DHT22;368;48.698;9.116;2023-07-29T07:59:50;18.40;99.90
770;DHT22;368;48.698;9.116;2023-07-29T08:02:17;18.50;99.90
770;DHT22;368;48.698;9.116;2023-07-29T08:04:44;18.80;99.90
770;DHT22;368;48.698;9.116;2023-07-29T08:07:11;18.90;99.90
770;DHT22;368;48.698;9.116;2023-07-29T08:09:39;19.00;99.90
770;DHT22;368;48.698;9.116;2023-07-29T08:12:06;19.20;99.90
770;DHT22;368;48.698;9.116;2023-07-29T08:14:33;19.50;99.90
770;DHT22;368;48.698;9.116;2023-07-29T08:17:01;19.70;99.90
770;DHT22;368;48.698;9.116;2023-07-29T08:19:28;19.60;99.90
770;DHT22;368;48.698;9.116;2023-07-29T08:21:55;19.70;99.90
770;DHT22;368;48.698;9.116;2023-07-29T08:24:22;19.80;99.90
770;DHT22;368;48.698;9.116;2023-07-29T08:26:48;20.00;99.90
770;DHT22;368;48.698;9.116;2023-07-29T08:29:15;20.20;99.90
770;DHT22;368;48.698;9.116;2023-07-29T08:31:42;20.50;99.90
770;DHT22;368;48.698;9.116;2023-07-29T08:34:10;20.70;99.90
770;DHT22;368;48.698;9.116;2023-07-29T08:36:37;21.00;99.90
770;DHT22;368;48.698;9.116;2023-07-29T08:39:04;21.50;99.90
770;DHT22;368;48.698;9.116;2023-07-29T08:41:35;22.00;99.90
770;DHT22;368;48.698;9.116;2023-07-29T08:44:09;22.30;99.90
770;DHT22;368;48.698;9.116;2023-07-29T08:46:36;22.20;99.90
770;DHT22;368;48.698;9.116;2023-07-29T08:49:03;22.60;99.90
770;DHT22;368;48.698;9.116;2023-07-29T08:51:32;22.70;99.90
770;DHT22;368;48.698;9.116;2023-07-29T08:53:59;22.60;99.90
770;DHT22;368;48.698;9.116;2023-07-29T08:56:26;22.90;99.90
770;DHT22;368;48.698;9.116;2023-07-29T08:58:56;22.70;99.90
770;DHT22;368;48.698;9.116;2023-07-29T09:01:24;22.50;99.90
770;DHT22;368;48.698;9.116;2023-07-29T09:03:51;22.30;99.90
770;DHT22;368;48.698;9.116;2023-07-29T09:06:18;22.20;99.90
770;DHT22;368;48.698;9.116;2023-07-29T09:08:48;21.90;99.90
770;DHT22;368;48.698;9.116;2023-07-29T09:11:15;22.00;99.90
770;DHT22;368;48.698;9.116;2023-07-29T09:13:43;22.10;99.90
770;DHT22;368;48.698;9.116;2023-07-29T09:16:10;22.30;99.90
770;DHT22;368;48.698;9.116;2023-07-29T09:18:37;22.70;99.90
770;DHT22;368;48.698;9.116;2023-07-29T09:21:04;23.90;99.90
770;DHT22;368;48.698;9.116;2023-07-29T09:23:39;23.90;99.90
770;DHT22;368;48.698;9.116;2023-07-29T09:26:08;24.10;99.90
770;DHT22;368;48.698;9.116;2023-07-29T09:28:35;25.00;99.90
770;DHT22;368;48.698;9.116;2023-07-29T09:31:03;25.00;99.90
770;DHT22;368;48.698;9.116;2023-07-29T09:33:33;24.40;99.90
770;DHT22;368;48.698;9.116;2023-07-29T09:36:01;23.90;99.90
770;DHT22;368;48.698;9.116;2023-07-29T09:38:28;23.70;99.90
770;DHT22;368;48.698;9.116;2023-07-29T09:40:56;23.60;99.90
770;DHT22;368;48.698;9.116;2023-07-29T09:43:29;23.90;99.90
770;DHT22;368;48.698;9.116;2023-07-29T09:45:59;24.00;99.90
770;DHT22;368;48.698;9.116;2023-07-29T09:48:27;24.30;99.90
770;DHT22;368;48.698;9.116;2023-07-29T09:50:55;24.80;99.90
770;DHT22;368;48.698;9.116;2023-07-29T09:53:21;24.30;99.90
770;DHT22;368;48.698;9.116;2023-07-29T09:55:49;24.10;99.90
770;DHT22;368;48.698;9.116;2023-07-29T09:58:21;25.20;99.90
770;DHT22;368;48.698;9.116;2023-07-29T10:00:53;25.70;99.90
770;DHT22;368;48.698;9.116;2023-07-29T10:03:21;26.60;99.90
770;DHT22;368;48.698;9.116;2023-07-29T10:05:48;26.50;99.90
770;DHT22;368;48.698;9.116;2023-07-29T10:08:16;26.10;99.90
770;DHT22;368;48.698;9.116;2023-07-29T10:10:43;25.20;99.90
770;DHT22;368;48.698;9.116;2023-07-29T10:13:10;24.80;99.90
770;DHT22;368;48.698;9.116;2023-07-29T10:15:39;24.70;99.90
770;DHT22;368;48.698;9.116;2023-07-29T10:18:08;25.00;99.90
770;DHT22;368;48.698;9.116;2023-07-29T10:20:35;25.30;99.90
770;DHT22;368;48.698;9.116;2023-07-29T10:23:04;25.20;99.90
770;DHT22;368;48.698;9.116;2023-07-29T10:25:38;25.40;99.90
770;DHT22;368;48.698;9.116;2023-07-29T10:28:06;25.90;99.90
770;DHT22;368;48.698;9.116;2023-07-29T10:30:33;27.10;98.00
770;DHT22;368;48.698;9.116;2023-07-29T10:33:03;27.30;97.80
770;DHT22;368;48.698;9.116;2023-07-29T10:35:32;27.60;96.20
770;DHT22;368;48.698;9.116;2023-07-29T10:38:00;28.20;96.10
770;DHT22;368;48.698;9.116;2023-07-29T10:40:43;27.60;94.20
770;DHT22;368;48.698;9.116;2023-07-29T10:43:11;28.30;95.60
770;DHT22;368;48.698;9.116;2023-07-29T10:45:41;29.20;92.80
770;DHT22;368;48.698;9.116;2023-07-29T10:48:10;28.10;93.30
770;DHT22;368;48.698;9.116;2023-07-29T10:50:39;27.10;93.80
770;DHT22;368;48.698;9.116;2023-07-29T10:53:06;26.80;95.00
770;DHT22;368;48.698;9.116;2023-07-29T10:55:34;26.40;92.80
770;DHT22;368;48.698;9.116;2023-07-29T10:58:07;26.40;93.30
770;DHT22;368;48.698;9.116;2023-07-29T11:00:34;26.10;94.00
770;DHT22;368;48.698;9.116;2023-07-29T11:03:02;26.10;93.80
770;DHT22;368;48.698;9.116;2023-07-29T11:05:47;27.40;92.00
770;DHT22;368;48.698;9.116;2023-07-29T11:08:19;27.60;92.00
770;DHT22;368;48.698;9.116;2023-07-29T11:10:58;28.30;90.50
770;DHT22;368;48.698;9.116;2023-07-29T11:13:26;28.40;90.60
770;DHT22;368;48.698;9.116;2023-07-29T11:15:54;28.50;91.40
770;DHT22;368;48.698;9.116;2023-07-29T11:18:26;29.10;88.50
770;DHT22;368;48.698;9.116;2023-07-29T11:20:56;28.80;89.10
770;DHT22;368;48.698;9.116;2023-07-29T11:23:31;27.60;89.90
770;DHT22;368;48.698;9.116;2023-07-29T11:25:58;27.20;90.90
770;DHT22;368;48.698;9.116;2023-07-29T11:28:26;26.70;90.70
770;DHT22;368;48.698;9.116;2023-07-29T11:30:54;26.40;91.40
770;DHT22;368;48.698;9.116;2023-07-29T11:33:23;27.20;91.10
770;DHT22;368;48.698;9.116;2023-07-29T11:35:50;27.80;90.80
770;DHT22;368;48.698;9.116;2023-07-29T11:38:20;28.30;89.30
770;DHT22;368;48.698;9.116;2023-07-29T11:40:58;29.30;87.40
770;DHT22;368;48.698;9.116;2023-07-29T11:43:25;30.50;83.40
770;DHT22;368;48.698;9.116;2023-07-29T11:45:52;30.60;79.50
770;DHT22;368;48.698;9.116;2023-07-29T11:48:26;30.20;79.00
770;DHT22;368;48.698;9.116;2023-07-29T11:50:53;30.20;77.50
770;DHT22;368;48.698;9.116;2023-07-29T11:53:22;28.70;80.10
770;DHT22;368;48.698;9.116;2023-07-29T11:55:51;28.60;82.00
770;DHT22;368;48.698;9.116;2023-07-29T11:58:18;28.40;81.00
770;DHT22;368;48.698;9.116;2023-07-29T12:00:45;28.70;79.10
770;DHT22;368;48.698;9.116;2023-07-29T12:03:13;27.90;80.20
770;DHT22;368;48.698;9.116;2023-07-29T12:05:40;27.90;82.00
770;DHT22;368;48.698;9.116;2023-07-29T12:08:08;28.10;83.10
770;DHT22;368;48.698;9.116;2023-07-29T12:10:37;29.30;79.00
770;DHT22;368;48.698;9.116;2023-07-29T12:13:04;29.60;79.00
770;DHT22;368;48.698;9.116;2023-07-29T12:15:31;29.30;79.00
770;DHT22;368;48.698;9.116;2023-07-29T12:17:59;28.60;77.90
770;DHT22;368;48.698;9.116;2023-07-29T12:20:26;29.30;77.60
770;DHT22;368;48.698;9.116;2023-07-29T12:22:55;30.30;77.10
770;DHT22;368;48.698;9.116;2023-07-29T12:25:22;31.50;73.90
770;DHT22;368;48.698;9.116;2023-07-29T12:27:50;29.40;73.70
770;DHT22;368;48.698;9.116;2023-07-29T12:30:20;28.80;75.70
770;DHT22;368;48.698;9.116;2023-07-29T12:32:47;28.70;77.20
770;DHT22;368;48.698;9.116;2023-07-29T12:35:14;28.70;79.00
770;DHT22;368;48.698;9.116;2023-07-29T12:37:41;28.70;79.10
770;DHT22;368;48.698;9.116;2023-07-29T12:42:53;28.90;77.50
770;DHT22;368;48.698;9.116;2023-07-29T12:45:20;29.70;77.30
770;DHT22;368;48.698;9.116;2023-07-29T12:47:48;28.80;77.00
770;DHT22;368;48.698;9.116;2023-07-29T12:50:15;29.50;78.40
770;DHT22;368;48.698;9.116;2023-07-29T12:52:42;29.40;78.60
770;DHT22;368;48.698;9.116;2023-07-29T12:55:09;29.10;78.40
770;DHT22;368;48.698;9.116;2023-07-29T12:57:39;29.80;78.50
770;DHT22;368;48.698;9.116;2023-07-29T13:00:09;29.60;76.90
770;DHT22;368;48.698;9.116;2023-07-29T13:02:36;29.40;79.80
770;DHT22;368;48.698;9.116;2023-07-29T13:05:03;29.10;79.50
770;DHT22;368;48.698;9.116;2023-07-29T13:07:30;28.20;80.50
770;DHT22;368;48.698;9.116;2023-07-29T13:09:57;28.60;81.10
770;DHT22;368;48.698;9.116;2023-07-29T13:12:24;29.10;79.70
770;DHT22;368;48.698;9.116;2023-07-29T13:14:51;28.70;80.80
770;DHT22;368;48.698;9.116;2023-07-29T13:17:19;27.90;80.00
770;DHT22;368;48.698;9.116;2023-07-29T13:19:47;27.70;80.80
770;DHT22;368;48.698;9.116;2023-07-29T13:22:14;27.60;82.90
770;DHT22;368;48.698;9.116;2023-07-29T13:24:40;27.90;81.10
770;DHT22;368;48.698;9.116;2023-07-29T13:27:07;27.90;81.90
770;DHT22;368;48.698;9.116;2023-07-29T13:29:34;27.60;82.10
770;DHT22;368;48.698;9.116;2023-07-29T13:32:01;27.30;81.40
770;DHT22;368;48.698;9.116;2023-07-29T13:34:29;27.90;81.40
770;DHT22;368;48.698;9.116;2023-07-29T13:36:56;27.40;81.20
770;DHT22;368;48.698;9.116;2023-07-29T13:39:23;27.10;81.40
770;DHT22;368;48.698;9.116;2023-07-29T13:41:49;27.10;83.00
770;DHT22;368;48.698;9.116;2023-07-29T13:44:16;27.00;81.00
770;DHT22;368;48.698;9.116;2023-07-29T13:46:43;27.00;82.30
770;DHT22;368;48.698;9.116;2023-07-29T13:49:10;27.40;82.00
770;DHT22;368;48.698;9.116;2023-07-29T13:51:38;27.80;78.70
770;DHT22;368;48.698;9.116;2023-07-29T13:54:05;27.20;80.20
770;DHT22;368;48.698;9.116;2023-07-29T13:56:32;26.80;81.60
770;DHT22;368;48.698;9.116;2023-07-29T13:58:59;26.50;81.70
770;DHT22;368;48.698;9.116;2023-07-29T14:01:26;26.40;83.40
770;DHT22;368;48.698;9.116;2023-07-29T14:03:56;26.60;82.90
770;DHT22;368;48.698;9.116;2023-07-29T14:06:23;27.10;82.20
770;DHT22;368;48.698;9.116;2023-07-29T14:08:51;27.00;81.90
770;DHT22;368;48.698;9.116;2023-07-29T14:11:18;26.60;83.00
770;DHT22;368;48.698;9.116;2023-07-29T14:13:44;26.60;83.80
770;DHT22;368;48.698;9.116;2023-07-29T14:16:11;26.60;83.70
770;DHT22;368;48.698;9.116;2023-07-29T14:18:38;26.30;83.90
770;DHT22;368;48.698;9.116;2023-07-29T14:21:05;25.90;84.10
770;DHT22;368;48.698;9.116;2023-07-29T14:23:31;25.80;85.10
770;DHT22;368;48.698;9.116;2023-07-29T14:25:59;26.20;85.50
770;DHT22;368;48.698;9.116;2023-07-29T14:28:26;26.80;85.60
770;DHT22;368;48.698;9.116;2023-07-29T14:30:54;27.00;83.50
770;DHT22;368;48.698;9.116;2023-07-29T14:33:20;27.80;81.50
770;DHT22;368;48.698;9.116;2023-07-29T14:35:47;28.40;79.30
770;DHT22;368;48.698;9.116;2023-07-29T14:38:14;27.60;79.90
770;DHT22;368;48.698;9.116;2023-07-29T14:40:41;27.20;82.60
770;DHT22;368;48.698;9.116;2023-07-29T14:43:09;27.10;83.30
770;DHT22;368;48.698;9.116;2023-07-29T14:45:36;27.00;82.50
770;DHT22;368;48.698;9.116;2023-07-29T14:48:03;26.50;82.30
770;DHT22;368;48.698;9.116;2023-07-29T14:50:30;26.30;83.20
770;DHT22;368;48.698;9.116;2023-07-29T14:52:57;26.30;84.20
770;DHT22;368;48.698;9.116;2023-07-29T14:55:24;26.10;83.00
770;DHT22;368;48.698;9.116;2023-07-29T14:57:50;26.10;83.10
770;DHT22;368;48.698;9.116;2023-07-29T15:00:19;26.10;84.10
770;DHT22;368;48.698;9.116;2023-07-29T15:02:45;26.40;85.30
770;DHT22;368;48.698;9.116;2023-07-29T15:05:12;26.60;83.60
770;DHT22;368;48.698;9.116;2023-07-29T15:07:39;26.20;83.60
770;DHT22;368;48.698;9.116;2023-07-29T15:10:07;25.80;84.70
770;DHT22;368;48.698;9.116;2023-07-29T15:12:34;25.80;86.00
770;DHT22;368;48.698;9.116;2023-07-29T15:15:01;25.70;84.60
770;DHT22;368;48.698;9.116;2023-07-29T15:17:29;25.50;85.60
770;DHT22;368;48.698;9.116;2023-07-29T15:19:57;25.80;86.50
770;DHT22;368;48.698;9.116;2023-07-29T15:22:23;25.40;85.50
770;DHT22;368;48.698;9.116;2023-07-29T15:24:50;25.50;86.50
770;DHT22;368;48.698;9.116;2023-07-29T15:27:17;25.50;86.90
770;DHT22;368;48.698;9.116;2023-07-29T15:29:44;25.70;86.90
770;DHT22;368;48.698;9.116;2023-07-29T15:32:11;25.60;86.10
770;DHT22;368;48.698;9.116;2023-07-29T15:34:39;25.50;86.70
770;DHT22;368;48.698;9.116;2023-07-29T15:37:06;25.70;86.50
770;DHT22;368;48.698;9.116;2023-07-29T15:39:33;25.70;86.80
770;DHT22;368;48.698;9.116;2023-07-29T15:42:00;25.70;86.30
770;DHT22;368;48.698;9.116;2023-07-29T15:44:27;25.90;86.40
770;DHT22;368;48.698;9.116;2023-07-29T15:46:53;26.10;87.80
770;DHT22;368;48.698;9.116;2023-07-29T15:49:21;25.90;86.40
770;DHT22;368;48.698;9.116;2023-07-29T15:51:49;25.80;86.40
770;DHT22;368;48.698;9.116;2023-07-29T15:54:17;25.60;86.30
770;DHT22;368;48.698;9.116;2023-07-29T15:56:43;25.40;87.80
770;DHT22;368;48.698;9.116;2023-07-29T15:59:10;25.20;88.20
770;DHT22;368;48.698;9.116;2023-07-29T16:01:37;25.10;89.50
770;DHT22;368;48.698;9.116;2023-07-29T16:04:04;25.10;89.10
770;DHT22;368;48.698;9.116;2023-07-29T16:06:31;25.20;87.60
770;DHT22;368;48.698;9.116;2023-07-29T16:08:59;25.20;88.60
770;DHT22;368;48.698;9.116;2023-07-29T16:11:31;25.30;90.00
770;DHT22;368;48.698;9.116;2023-07-29T16:13:58;25.30;88.50
770;DHT22;368;48.698;9.116;2023-07-29T16:16:27;25.30;88.40
770;DHT22;368;48.698;9.116;2023-07-29T16:18:53;24.90;88.60
770;DHT22;368;48.698;9.116;2023-07-29T16:21:20;24.80;90.00
770;DHT22;368;48.698;9.116;2023-07-29T16:23:47;24.80;89.00
770;DHT22;368;48.698;9.116;2023-07-29T16:26:19;25.10;89.10
770;DHT22;368;48.698;9.116;2023-07-29T16:28:46;25.20;90.00
770;DHT22;368;48.698;9.116;2023-07-29T16:31:13;25.30;88.90
770;DHT22;368;48.698;9.116;2023-07-29T16:33:40;25.50;89.50
770;DHT22;368;48.698;9.116;2023-07-29T16:36:07;25.20;89.80
770;DHT22;368;48.698;9.116;2023-07-29T16:38:33;25.10;89.40